sensor_id;sensor_type;location;lat;lon;timestamp;P1;durP1;ratioP1;P2;durP2;ratioP2
72273;SDS011;77240;48.692;8.948;2024-03-25T00:00:41;5.63;;;3.10;;
72273;SDS011;77240;48.692;8.948;2024-03-25T00:03:07;4.63;;;3.10;;
72273;SDS011;77240;48.692;8.948;2024-03-25T00:05:34;5.70;;;3.20;;
72273;SDS011;77240;48.692;8.948;2024-03-25T00:08:00;6.95;;;3.33;;
72273;SDS011;77240;48.692;8.948;2024-03-25T00:10:25;4.88;;;2.90;;
72273;SDS011;77240;48.692;8.948;2024-03-25T00:12:51;4.30;;;2.95;;
72273;SDS011;77240;48.692;8.948;2024-03-25T00:15:22;5.80;;;2.90;;
72273;SDS011;77240;48.692;8.948;2024-03-25T00:17:49;4.97;;;2.92;;
72273;SDS011;77240;48.692;8.948;2024-03-25T00:20:15;4.90;;;3.00;;
72273;SDS011;77240;48.692;8.948;2024-03-25T00:22:41;4.65;;;3.50;;
72273;SDS011;77240;48.692;8.948;2024-03-25T00:25:07;5.80;;;3.10;;
72273;SDS011;77240;48.692;8.948;2024-03-25T00:27:34;6.28;;;3.10;;
72273;SDS011;77240;48.692;8.948;2024-03-25T00:30:00;5.25;;;2.78;;
72273;SDS011;77240;48.692;8.948;2024-03-25T00:32:26;7.25;;;2.83;;
72273;SDS011;77240;48.692;8.948;2024-03-25T00:34:52;6.03;;;3.20;;
72273;SDS011;77240;48.692;8.948;2024-03-25T00:37:18;5.70;;;2.90;;
72273;SDS011;77240;48.692;8.948;2024-03-25T00:39:44;6.13;;;2.90;;
72273;SDS011;77240;48.692;8.948;2024-03-25T00:42:10;6.10;;;2.95;;
72273;SDS011;77240;48.692;8.948;2024-03-25T00:44:36;5.40;;;3.03;;
72273;SDS011;77240;48.692;8.948;2024-03-25T00:47:02;7.18;;;3.28;;
72273;SDS011;77240;48.692;8.948;2024-03-25T00:49:28;8.85;;;3.00;;
72273;SDS011;77240;48.692;8.948;2024-03-25T00:51:54;5.72;;;3.10;;
72273;SDS011;77240;48.692;8.948;2024-03-25T00:54:20;6.70;;;3.08;;
72273;SDS011;77240;48.692;8.948;2024-03-25T00:56:46;5.40;;;2.85;;
72273;SDS011;77240;48.692;8.948;2024-03-25T00:59:12;6.78;;;2.97;;
72273;SDS011;77240;48.692;8.948;2024-03-25T01:01:38;7.25;;;2.83;;
72273;SDS011;77240;48.692;8.948;2024-03-25T01:04:04;5.03;;;2.78;;
72273;SDS011;77240;48.692;8.948;2024-03-25T01:06:30;4.50;;;3.00;;
72273;SDS011;77240;48.692;8.948;2024-03-25T01:08:56;7.20;;;3.30;;
72273;SDS011;77240;48.692;8.948;2024-03-25T01:11:22;4.60;;;3.20;;
72273;SDS011;77240;48.692;8.948;2024-03-25T01:13:48;4.97;;;2.90;;
72273;SDS011;77240;48.692;8.948;2024-03-25T01:16:14;7.20;;;2.92;;
72273;SDS011;77240;48.692;8.948;2024-03-25T01:18:40;8.05;;;3.33;;
72273;SDS011;77240;48.692;8.948;2024-03-25T01:21:06;7.55;;;2.80;;
72273;SDS011;77240;48.692;8.948;2024-03-25T01:23:32;10.00;;;4.25;;
72273;SDS011;77240;48.692;8.948;2024-03-25T01:25:58;4.65;;;3.10;;
72273;SDS011;77240;48.692;8.948;2024-03-25T01:28:24;6.95;;;3.08;;
72273;SDS011;77240;48.692;8.948;2024-03-25T01:30:50;6.25;;;2.97;;
72273;SDS011;77240;48.692;8.948;2024-03-25T01:33:15;5.25;;;2.78;;
72273;SDS011;77240;48.692;8.948;2024-03-25T01:35:41;7.38;;;2.90;;
72273;SDS011;77240;48.692;8.948;2024-03-25T01:38:07;6.35;;;2.85;;
72273;SDS011;77240;48.692;8.948;2024-03-25T01:40:34;4.50;;;3.15;;
72273;SDS011;77240;48.692;8.948;2024-03-25T01:43:00;6.65;;;3.05;;
72273;SDS011;77240;48.692;8.948;2024-03-25T01:45:31;4.55;;;3.03;;
72273;SDS011;77240;48.692;8.948;2024-03-25T01:48:01;6.40;;;3.30;;
72273;SDS011;77240;48.692;8.948;2024-03-25T01:50:30;5.30;;;2.80;;
72273;SDS011;77240;48.692;8.948;2024-03-25T01:53:00;7.47;;;3.38;;
72273;SDS011;77240;48.692;8.948;2024-03-25T01:55:28;4.85;;;2.80;;
72273;SDS011;77240;48.692;8.948;2024-03-25T01:57:55;5.80;;;3.17;;
72273;SDS011;77240;48.692;8.948;2024-03-25T02:00:22;6.53;;;3.20;;
72273;SDS011;77240;48.692;8.948;2024-03-25T02:02:51;7.05;;;3.15;;
72273;SDS011;77240;48.692;8.948;2024-03-25T02:05:18;8.18;;;3.50;;
72273;SDS011;77240;48.692;8.948;2024-03-25T02:07:45;8.05;;;3.40;;
72273;SDS011;77240;48.692;8.948;2024-03-25T02:10:11;6.18;;;3.00;;
72273;SDS011;77240;48.692;8.948;2024-03-25T02:12:43;6.97;;;3.33;;
72273;SDS011;77240;48.692;8.948;2024-03-25T02:15:10;7.35;;;3.40;;
72273;SDS011;77240;48.692;8.948;2024-03-25T02:17:36;8.23;;;3.40;;
72273;SDS011;77240;48.692;8.948;2024-03-25T02:20:03;7.00;;;3.20;;
72273;SDS011;77240;48.692;8.948;2024-03-25T02:22:34;6.38;;;3.40;;
72273;SDS011;77240;48.692;8.948;2024-03-25T02:25:03;5.60;;;3.33;;
72273;SDS011;77240;48.692;8.948;2024-03-25T02:27:33;6.72;;;3.17;;
72273;SDS011;77240;48.692;8.948;2024-03-25T02:30:03;5.93;;;3.20;;
72273;SDS011;77240;48.692;8.948;2024-03-25T02:32:31;6.00;;;3.35;;
72273;SDS011;77240;48.692;8.948;2024-03-25T02:34:57;5.38;;;3.30;;
72273;SDS011;77240;48.692;8.948;2024-03-25T02:37:24;5.63;;;3.35;;
72273;SDS011;77240;48.692;8.948;2024-03-25T02:39:51;5.90;;;3.30;;
72273;SDS011;77240;48.692;8.948;2024-03-25T02:42:19;6.13;;;3.47;;
72273;SDS011;77240;48.692;8.948;2024-03-25T02:44:45;6.47;;;3.15;;
72273;SDS011;77240;48.692;8.948;2024-03-25T02:47:11;6.22;;;3.60;;
72273;SDS011;77240;48.692;8.948;2024-03-25T02:49:37;5.40;;;3.28;;
72273;SDS011;77240;48.692;8.948;2024-03-25T02:52:03;7.90;;;3.35;;
72273;SDS011;77240;48.692;8.948;2024-03-25T02:54:30;4.85;;;3.20;;
72273;SDS011;77240;48.692;8.948;2024-03-25T02:56:56;6.65;;;3.28;;
72273;SDS011;77240;48.692;8.948;2024-03-25T02:59:22;7.43;;;3.25;;
72273;SDS011;77240;48.692;8.948;2024-03-25T03:01:48;6.57;;;3.40;;
72273;SDS011;77240;48.692;8.948;2024-03-25T03:04:13;9.85;;;3.38;;
72273;SDS011;77240;48.692;8.948;2024-03-25T03:06:39;8.27;;;3.20;;
72273;SDS011;77240;48.692;8.948;2024-03-25T03:09:05;5.80;;;3.65;;
72273;SDS011;77240;48.692;8.948;2024-03-25T03:11:32;6.10;;;3.28;;
72273;SDS011;77240;48.692;8.948;2024-03-25T03:13:59;6.10;;;3.20;;
72273;SDS011;77240;48.692;8.948;2024-03-25T03:16:25;5.75;;;3.90;;
72273;SDS011;77240;48.692;8.948;2024-03-25T03:18:51;7.90;;;3.47;;
72273;SDS011;77240;48.692;8.948;2024-03-25T03:21:16;8.32;;;3.20;;
72273;SDS011;77240;48.692;8.948;2024-03-25T03:23:42;7.47;;;3.55;;
72273;SDS011;77240;48.692;8.948;2024-03-25T03:26:11;6.75;;;3.85;;
72273;SDS011;77240;48.692;8.948;2024-03-25T03:28:39;8.70;;;3.65;;
72273;SDS011;77240;48.692;8.948;2024-03-25T03:31:06;10.98;;;4.03;;
72273;SDS011;77240;48.692;8.948;2024-03-25T03:33:32;5.47;;;3.40;;
72273;SDS011;77240;48.692;8.948;2024-03-25T03:35:58;8.25;;;4.00;;
72273;SDS011;77240;48.692;8.948;2024-03-25T03:38:25;5.80;;;3.55;;
72273;SDS011;77240;48.692;8.948;2024-03-25T03:43:23;8.00;;;3.85;;
72273;SDS011;77240;48.692;8.948;2024-03-25T03:45:49;7.82;;;4.28;;
72273;SDS011;77240;48.692;8.948;2024-03-25T03:48:15;7.28;;;3.92;;
72273;SDS011;77240;48.692;8.948;2024-03-25T03:50:41;7.10;;;4.22;;
72273;SDS011;77240;48.692;8.948;2024-03-25T03:53:08;6.95;;;3.97;;
72273;SDS011;77240;48.692;8.948;2024-03-25T03:55:34;6.45;;;4.15;;
72273;SDS011;77240;48.692;8.948;2024-03-25T03:57:59;10.15;;;4.50;;
72273;SDS011;77240;48.692;8.948;2024-03-25T04:00:25;7.75;;;4.28;;
72273;SDS011;77240;48.692;8.948;2024-03-25T04:02:51;8.80;;;4.00;;
72273;SDS011;77240;48.692;8.948;2024-03-25T04:05:17;8.35;;;4.10;;
72273;SDS011;77240;48.692;8.948;2024-03-25T04:07:43;6.63;;;3.97;;
72273;SDS011;77240;48.692;8.948;2024-03-25T04:10:09;9.43;;;4.18;;
72273;SDS011;77240;48.692;8.948;2024-03-25T04:12:36;10.50;;;4.40;;
72273;SDS011;77240;48.692;8.948;2024-03-25T04:15:05;6.63;;;4.00;;
72273;SDS011;77240;48.692;8.948;2024-03-25T04:17:31;10.55;;;4.32;;
72273;SDS011;77240;48.692;8.948;2024-03-25T04:20:00;6.30;;;4.20;;
72273;SDS011;77240;48.692;8.948;2024-03-25T04:22:26;8.55;;;4.70;;
72273;SDS011;77240;48.692;8.948;2024-03-25T04:24:52;5.72;;;4.00;;
72273;SDS011;77240;48.692;8.948;2024-03-25T04:27:18;7.60;;;4.05;;
72273;SDS011;77240;48.692;8.948;2024-03-25T04:29:46;8.05;;;3.92;;
72273;SDS011;77240;48.692;8.948;2024-03-25T04:32:12;6.82;;;4.05;;
72273;SDS011;77240;48.692;8.948;2024-03-25T04:34:38;6.93;;;3.97;;
72273;SDS011;77240;48.692;8.948;2024-03-25T04:37:04;7.97;;;3.67;;
72273;SDS011;77240;48.692;8.948;2024-03-25T04:39:30;9.27;;;3.95;;
72273;SDS011;77240;48.692;8.948;2024-03-25T04:41:56;7.32;;;4.00;;
72273;SDS011;77240;48.692;8.948;2024-03-25T04:44:22;6.85;;;4.05;;
72273;SDS011;77240;48.692;8.948;2024-03-25T04:46:48;8.48;;;4.38;;
72273;SDS011;77240;48.692;8.948;2024-03-25T04:49:14;8.75;;;4.32;;
72273;SDS011;77240;48.692;8.948;2024-03-25T04:51:40;11.68;;;4.40;;
72273;SDS011;77240;48.692;8.948;2024-03-25T04:54:06;8.10;;;4.40;;
72273;SDS011;77240;48.692;8.948;2024-03-25T04:56:32;7.88;;;4.03;;
72273;SDS011;77240;48.692;8.948;2024-03-25T04:58:58;7.10;;;4.10;;
72273;SDS011;77240;48.692;8.948;2024-03-25T05:01:27;6.90;;;4.30;;
72273;SDS011;77240;48.692;8.948;2024-03-25T05:03:53;6.53;;;4.32;;
72273;SDS011;77240;48.692;8.948;2024-03-25T05:06:19;8.15;;;4.25;;
72273;SDS011;77240;48.692;8.948;2024-03-25T05:08:45;8.45;;;5.38;;
72273;SDS011;77240;48.692;8.948;2024-03-25T05:11:13;6.97;;;4.20;;
72273;SDS011;77240;48.692;8.948;2024-03-25T05:13:39;7.72;;;4.28;;
72273;SDS011;77240;48.692;8.948;2024-03-25T05:16:05;9.80;;;4.38;;
72273;SDS011;77240;48.692;8.948;2024-03-25T05:18:31;8.90;;;4.20;;
72273;SDS011;77240;48.692;8.948;2024-03-25T05:20:57;7.22;;;4.13;;
72273;SDS011;77240;48.692;8.948;2024-03-25T05:23:24;7.88;;;4.20;;
72273;SDS011;77240;48.692;8.948;2024-03-25T05:25:49;7.18;;;4.45;;
72273;SDS011;77240;48.692;8.948;2024-03-25T05:28:15;9.15;;;4.40;;
72273;SDS011;77240;48.692;8.948;2024-03-25T05:30:41;7.40;;;4.80;;
72273;SDS011;77240;48.692;8.948;2024-03-25T05:33:07;9.95;;;4.40;;
72273;SDS011;77240;48.692;8.948;2024-03-25T05:35:33;7.97;;;4.50;;
72273;SDS011;77240;48.692;8.948;2024-03-25T05:38:02;12.32;;;4.30;;
72273;SDS011;77240;48.692;8.948;2024-03-25T05:40:31;9.35;;;4.95;;
72273;SDS011;77240;48.692;8.948;2024-03-25T05:42:57;10.65;;;5.40;;
72273;SDS011;77240;48.692;8.948;2024-03-25T05:45:23;8.05;;;5.40;;
72273;SDS011;77240;48.692;8.948;2024-03-25T05:47:52;8.38;;;4.80;;
72273;SDS011;77240;48.692;8.948;2024-03-25T05:50:18;8.43;;;4.60;;
72273;SDS011;77240;48.692;8.948;2024-03-25T05:52:44;7.70;;;4.65;;
72273;SDS011;77240;48.692;8.948;2024-03-25T05:55:10;8.60;;;4.90;;
72273;SDS011;77240;48.692;8.948;2024-03-25T05:57:36;9.65;;;4.63;;
72273;SDS011;77240;48.692;8.948;2024-03-25T06:00:02;7.75;;;4.50;;
72273;SDS011;77240;48.692;8.948;2024-03-25T06:02:37;11.20;;;4.75;;
72273;SDS011;77240;48.692;8.948;2024-03-25T06:05:03;9.13;;;4.70;;
72273;SDS011;77240;48.692;8.948;2024-03-25T06:07:30;7.57;;;4.55;;
72273;SDS011;77240;48.692;8.948;2024-03-25T06:09:56;10.15;;;4.68;;
